Flight Track Log - Related Links

Times and Time Zones

All times are in EDT time to prevent confusion due to time zone crossing. See the SWA286 flight status page for this flight to view local times or setup timezone preferences in your user account.


Time Position Orientation Groundspeed Altitude Reporting Facility
EDT Latitude Longitude Course Direction KTS MPH feet Rate Location/Type
Wed 04:42:44 PM 36.1500 -86.6667 360° North 162 186 1,200  Level Nashville TRACON
Wed 04:43:32 PM 36.1833 -86.6667 360° North 177 204 2,700 2,278 Climbing Nashville TRACON
Wed 04:44:32 PM 36.2000 -86.7333 287° West 224 258 5,300 3,150 Climbing Nashville TRACON
Wed 04:45:32 PM 36.2167 -86.8167 284° West 256 295 9,000 3,382 Climbing Nashville TRACON
Wed 04:46:22 PM 36.2225 -86.8814 276° West 256 295 11,500 2,945 Climbing Memphis Center
Wed 04:47:22 PM 36.2378 -86.9861 280° West 291 335 14,400 3,150 Climbing Memphis Center
Wed 04:48:22 PM 36.2533 -87.0961 280° West 323 372 17,800 2,800 Climbing Memphis Center
Wed 04:49:22 PM 36.2664 -87.1961 279° West 329 379 20,000 2,350 Climbing Memphis Center
Wed 04:50:22 PM 36.2839 -87.3139 280° West 340 391 22,500 2,550 Climbing Memphis Center
Wed 04:51:22 PM 36.3033 -87.4314 282° West 352 405 25,100 2,200 Climbing Memphis Center
Wed 04:52:22 PM 36.3372 -87.5514 289° West 357 411 26,900 1,800 Climbing Memphis Center
Wed 04:53:22 PM 36.3919 -87.6681 300° West 374 430 28,700 2,300 Climbing Memphis Center
Wed 04:54:22 PM 36.4469 -87.7978 298° West 385 443 31,500 2,350 Climbing Memphis Center
Wed 04:55:22 PM 36.4972 -87.9097 299° West 385 443 33,400 1,250 Climbing Memphis Center
Wed 04:56:22 PM 36.5472 -88.0194 300° West 375 432 34,000 300 Climbing Memphis Center
Wed 04:57:22 PM 36.5992 -88.1289 301° West 375 432 34,000 600 Level Memphis Center
Wed 04:58:22 PM 36.6469 -88.2414 298° West 370 426 35,200 1,450 Climbing Memphis Center
Wed 04:59:22 PM 36.6678 -88.3572 283° West 358 412 36,900 900 Climbing Memphis Center
Wed 05:00:22 PM 36.6842 -88.4733 280° West 347 399 37,000 50 Climbing Memphis Center
Wed 05:01:22 PM 36.7044 -88.5867 283° West 347 399 37,000 -200 Level Memphis Center
Wed 05:02:22 PM 36.7228 -88.7056 281° West 347 399 36,600 -500 Descending Memphis Center
Wed 05:03:22 PM 36.7411 -88.8217 281° West 347 399 36,000 -300 Descending Memphis Center
Wed 05:04:22 PM 36.7569 -88.9247 281° West 347 399 36,000  Level Memphis Center
Wed 05:05:22 PM 36.7747 -89.0436 281° West 352 405 36,000  Level Memphis Center
Wed 05:06:22 PM 36.7928 -89.1600 281° West 352 405 36,000  Level Memphis Center
Wed 05:07:22 PM 36.8106 -89.2764 281° West 352 405 36,000  Level Memphis Center
Wed 05:08:22 PM 36.8281 -89.3953 280° West 352 405 36,000  Level Memphis Center
Wed 05:09:22 PM 36.8456 -89.5144 280° West 352 405 36,000  Level Memphis Center
Wed 05:10:22 PM 36.8631 -89.6308 281° West 352 405 36,000  Level Memphis Center
Wed 05:11:22 PM 36.8803 -89.7475 280° West 352 405 36,000  Level Memphis Center
Wed 05:12:22 PM 36.8956 -89.8614 280° West 352 405 36,000  Level Memphis Center
Wed 05:13:22 PM 36.9125 -89.9781 280° West 352 405 36,000  Level Memphis Center
Wed 05:14:22 PM 36.9294 -90.0922 281° West 352 405 36,000  Level Memphis Center
Wed 05:15:22 PM 36.9464 -90.2089 280° West 352 405 36,000  Level Memphis Center
Wed 05:16:22 PM 36.9631 -90.3258 280° West 352 405 36,000  Level Memphis Center
Wed 05:18:18 PM 36.9972 -90.5533 281° West 336 387 36,000  Level Kansas City Center
Wed 05:19:21 PM 37.0128 -90.6692 280° West 337 388 36,000  Level Kansas City Center
Wed 05:20:22 PM 37.0281 -90.7839 280° West 336 387 36,000  Level Kansas City Center
Wed 05:21:24 PM 37.0442 -90.8989 280° West 335 386 36,000  Level Kansas City Center
Wed 05:22:26 PM 37.0592 -91.0122 279° West 333 383 36,000  Level Kansas City Center
Wed 05:23:29 PM 37.0767 -91.1389 280° West 333 383 36,000  Level Kansas City Center
Wed 05:24:31 PM 37.0911 -91.2533 279° West 331 381 36,000  Level Kansas City Center
Wed 05:25:32 PM 37.1067 -91.3681 280° West 332 382 36,000  Level Kansas City Center
Wed 05:26:36 PM 37.1222 -91.4822 280° West 332 382 36,000  Level Kansas City Center
Wed 05:27:37 PM 37.1408 -91.6181 280° West 331 381 36,000  Level Kansas City Center
Wed 05:28:40 PM 37.1564 -91.7325 280° West 331 381 36,000  Level Kansas City Center
Wed 05:29:42 PM 37.1708 -91.8475 279° West 332 382 36,000  Level Kansas City Center
Wed 05:30:43 PM 37.1861 -91.9611 280° West 329 379 36,000  Level Kansas City Center
Wed 05:31:47 PM 37.2006 -92.0753 279° West 331 381 36,000  Level Kansas City Center
Wed 05:32:47 PM 37.2156 -92.1889 279° West 329 379 36,000  Level Kansas City Center
Wed 05:33:48 PM 37.2297 -92.3031 279° West 329 379 36,000  Level Kansas City Center
Wed 05:34:52 PM 37.2444 -92.4175 279° West 329 379 36,000  Level Kansas City Center
Wed 05:35:52 PM 37.2611 -92.5525 279° West 328 377 36,000  Level Kansas City Center
Wed 05:36:56 PM 37.2753 -92.6658 279° West 327 376 36,000  Level Kansas City Center
Wed 05:37:56 PM 37.2894 -92.7800 279° West 327 376 36,000  Level Kansas City Center
Wed 05:39:00 PM 37.3036 -92.8942 279° West 329 379 36,000  Level Kansas City Center
Wed 05:40:01 PM 37.3172 -93.0078 279° West 328 377 36,000  Level Kansas City Center
Wed 05:41:04 PM 37.3303 -93.1217 278° West 327 376 36,000  Level Kansas City Center
Wed 05:42:05 PM 37.3433 -93.2336 278° West 326 375 36,000  Level Kansas City Center
Wed 05:43:08 PM 37.3578 -93.3453 279° West 324 373 36,000  Level Kansas City Center
Wed 05:44:09 PM 37.3969 -93.4792 290° West 336 387 36,000  Level Kansas City Center
Wed 05:45:13 PM 37.4269 -93.5867 289° West 331 381 36,000  Level Kansas City Center
Wed 05:46:14 PM 37.4569 -93.6961 289° West 329 379 36,000  Level Kansas City Center
Wed 05:47:15 PM 37.4869 -93.8053 289° West 329 379 36,000  Level Kansas City Center
Wed 05:48:18 PM 37.5172 -93.9150 289° West 328 377 36,000  Level Kansas City Center
Wed 05:49:19 PM 37.5467 -94.0233 289° West 328 377 36,000  Level Kansas City Center
Wed 05:50:22 PM 37.5828 -94.1492 290° West 327 376 36,000  Level Kansas City Center
Wed 05:51:23 PM 37.6108 -94.2564 288° West 323 372 36,000  Level Kansas City Center
Wed 05:52:27 PM 37.6403 -94.3631 289° West 323 372 36,000  Level Kansas City Center
Wed 05:53:27 PM 37.6697 -94.4692 289° West 322 371 36,000  Level Kansas City Center
Wed 05:54:31 PM 37.6989 -94.5797 288° West 322 371 36,000  Level Kansas City Center
Wed 05:55:32 PM 37.7319 -94.7017 289° West 326 375 36,000  Level Kansas City Center
Wed 05:56:36 PM 37.7592 -94.8039 289° West 324 373 36,000  Level Kansas City Center
Wed 05:57:36 PM 37.7908 -94.9261 288° West 324 373 36,000  Level Kansas City Center
Wed 05:58:40 PM 37.8194 -95.0308 289° West 327 376 36,000  Level Kansas City Center
Wed 05:59:41 PM 37.8475 -95.1411 288° West 327 376 36,000  Level Kansas City Center
Wed 06:00:42 PM 37.8764 -95.2486 289° West 325 374 36,000  Level Kansas City Center
Wed 06:01:44 PM 37.9047 -95.3569 288° West 325 374 36,000  Level Kansas City Center
Wed 06:02:48 PM 37.9372 -95.4808 288° West 323 372 36,000  Level Kansas City Center
Wed 06:03:48 PM 37.9647 -95.5867 288° West 325 374 36,000  Level Kansas City Center
Wed 06:04:52 PM 37.9956 -95.7072 288° West 322 371 36,000  Level Kansas City Center
Wed 06:05:53 PM 38.0217 -95.8097 288° West 319 367 36,000  Level Kansas City Center
Wed 06:06:54 PM 38.0519 -95.9297 288° West 319 367 36,000  Level Kansas City Center
Wed 06:07:57 PM 38.0783 -96.0314 288° West 317 365 36,000  Level Kansas City Center
Wed 06:08:58 PM 38.1039 -96.1344 288° West 319 367 36,000  Level Kansas City Center
Wed 06:10:02 PM 38.1314 -96.2411 288° West 319 367 36,000  Level Kansas City Center
Wed 06:11:01 PM 38.1628 -96.3681 287° West 315 362 36,000  Level Kansas City Center
Wed 06:12:05 PM 38.1894 -96.4739 288° West 317 365 36,000  Level Kansas City Center
Wed 06:13:07 PM 38.2156 -96.5800 287° West 316 364 36,000  Level Kansas City Center
Wed 06:14:08 PM 38.2417 -96.6847 288° West 312 359 36,000  Level Kansas City Center
Wed 06:15:11 PM 38.2683 -96.7908 288° West 315 362 36,000  Level Kansas City Center
Wed 06:16:14 PM 38.2939 -96.8961 287° West 314 361 36,000  Level Kansas City Center
Wed 06:17:15 PM 38.3247 -97.0233 287° West 315 362 36,000  Level Kansas City Center
Wed 06:18:19 PM 38.3506 -97.1303 287° West 317 365 36,000  Level Kansas City Center
Wed 06:19:20 PM 38.3767 -97.2378 287° West 319 367 36,000  Level Kansas City Center
Wed 06:20:22 PM 38.4031 -97.3461 287° West 321 369 36,000  Level Kansas City Center
Wed 06:21:24 PM 38.4294 -97.4544 287° West 322 371 36,000  Level Kansas City Center
Wed 06:22:25 PM 38.4597 -97.5839 287° West 320 368 36,000  Level Kansas City Center
Wed 06:23:29 PM 38.4858 -97.6917 287° West 319 367 36,000  Level Kansas City Center
Wed 06:24:29 PM 38.5106 -97.8008 286° West 321 369 36,000  Level Kansas City Center
Wed 06:25:31 PM 38.5361 -97.9086 287° West 321 369 36,000  Level Kansas City Center
Wed 06:26:33 PM 38.5619 -98.0181 287° West 324 373 36,000  Level Kansas City Center
Wed 06:27:34 PM 38.5878 -98.1294 287° West 328 377 36,000  Level Kansas City Center
Wed 06:28:38 PM 38.6189 -98.2644 286° West 333 383 36,000  Level Kansas City Center
Wed 06:29:39 PM 38.6458 -98.3761 287° West 331 381 36,000  Level Kansas City Center
Wed 06:30:42 PM 38.6706 -98.4875 286° West 328 377 36,000  Level Kansas City Center
Wed 06:31:43 PM 38.6967 -98.5981 287° West 325 374 36,000  Level Kansas City Center
Wed 06:32:43 PM 38.7222 -98.7092 286° West 326 375 36,000  Level Kansas City Center
Wed 06:33:47 PM 38.7472 -98.8242 286° West 334 384 36,000  Level Kansas City Center
Wed 06:34:49 PM 38.7789 -98.9625 286° West 337 388 36,000  Level Kansas City Center
Wed 06:35:51 PM 38.8036 -99.0775 285° West 336 387 36,000  Level Kansas City Center
Wed 06:36:52 PM 38.8308 -99.1933 287° West 339 390 36,000 -97 Level Kansas City Center
Wed 06:37:55 PM 38.8489 -99.3114 281° West 339 390 35,800 -514 Descending Kansas City Center
Wed 06:38:37 PM 38.8489 -99.3997 270° West 333 383 35,100 -1,038 Descending Denver Center
Wed 06:39:39 PM 38.8508 -99.5267 271° West 322 371 34,000 -532 Descending Denver Center
Wed 06:40:41 PM 38.8511 -99.6328 270° West 316 364 34,000  Level Denver Center
Wed 06:41:43 PM 38.8525 -99.7592 271° West 317 365 34,000  Level Denver Center
Wed 06:42:45 PM 38.8533 -99.8656 271° West 313 360 34,000  Level Denver Center
Wed 06:43:47 PM 38.8542 -99.9886 271° West 310 357 34,000  Level Denver Center
Wed 06:44:49 PM 38.8539 -100.0961 270° West 313 360 34,000  Level Denver Center
Wed 06:45:51 PM 38.8547 -100.2217 271° West 315 362 34,000  Level Denver Center
Wed 06:46:53 PM 38.8547 -100.3297 270° West 319 367 34,000  Level Denver Center
Wed 06:47:55 PM 38.8556 -100.4556 271° West 317 365 34,000  Level Denver Center
Wed 06:48:57 PM 38.8558 -100.5650 270° West 321 369 34,000  Level Denver Center
Wed 06:49:59 PM 38.8553 -100.6878 270° West 312 359 34,000  Level Denver Center
Wed 06:51:01 PM 38.8553 -100.7936 270° West 312 359 34,000  Level Denver Center
Wed 06:52:03 PM 38.8553 -100.9164 270° West 310 357 34,000  Level Denver Center
Wed 06:53:05 PM 38.8544 -101.0233 269° West 312 359 34,000  Level Denver Center
Wed 06:54:07 PM 38.8547 -101.1467 270° West 311 358 34,000  Level Denver Center
Wed 06:55:09 PM 38.8533 -101.2542 269° West 315 362 34,000  Level Denver Center
Wed 06:56:11 PM 38.8533 -101.3622 270° West 319 367 34,000  Level Denver Center
Wed 06:57:13 PM 38.8519 -101.4886 269° West 320 368 34,000  Level Denver Center
Wed 06:58:15 PM 38.8511 -101.5981 269° West 321 369 34,000  Level Denver Center
Wed 06:59:17 PM 38.8500 -101.7244 269° West 320 368 34,000  Level Denver Center
Wed 07:00:19 PM 38.8475 -101.8344 268° West 322 371 34,000  Level Denver Center
Wed 07:01:21 PM 38.8456 -101.9611 269° West 321 369 34,000  Level Denver Center
Wed 07:02:23 PM 38.8453 -102.0661 270° West 313 360 34,000  Level Denver Center
Wed 07:03:24 PM 38.8425 -102.1900 268° West 312 359 34,000  Level Denver Center
Wed 07:04:26 PM 38.8403 -102.2978 269° West 315 362 34,000 -145 Level Denver Center
Wed 07:05:28 PM 38.8389 -102.4233 269° West 317 365 33,700 -677 Descending Denver Center
Wed 07:06:30 PM 38.8358 -102.5247 268° West 303 349 32,600 -823 Descending Denver Center
Wed 07:07:32 PM 38.8364 -102.6386 270° West 293 337 32,000 -290 Descending Denver Center
Wed 07:08:34 PM 38.8356 -102.7367 269° West 289 333 32,000  Level Denver Center
Wed 07:09:37 PM 38.8811 -102.8411 299° West 302 348 32,000  Level Denver Center
Wed 07:10:39 PM 38.9258 -102.9372 301° West 311 358 32,000  Level Denver Center
Wed 07:11:53 PM 38.9728 -103.0356 302° West 320 368 32,000  Level Denver Center
Wed 07:12:55 PM 39.0281 -103.1500 302° West 321 369 32,000 -629 Level Denver Center
Wed 07:13:57 PM 39.0731 -103.2464 301° West 312 359 30,700 -1,645 Descending Denver Center
Wed 07:14:59 PM 39.1236 -103.3519 302° West 295 339 28,600 -1,935 Descending Denver Center
Wed 07:16:01 PM 39.1661 -103.4439 301° West 296 341 26,700 -1,839 Descending Denver Center
Wed 07:17:03 PM 39.2122 -103.5422 301° West 314 361 24,800 -1,839 Descending Denver Center
Wed 07:18:05 PM 39.2589 -103.6411 301° West 320 368 22,900 -1,839 Descending Denver Center
Wed 07:19:07 PM 39.3064 -103.7406 302° West 322 371 21,000 -1,790 Descending Denver Center
Wed 07:20:09 PM 39.3497 -103.8339 301° West 311 358 19,200 -1,584 Descending Denver Center
Wed 07:21:12 PM 39.3939 -103.9314 300° West 297 342 17,700 -1,584 Descending Denver Center
Wed 07:22:14 PM 39.4003 -104.0383 274° West 298 343 15,900 -1,645 Descending Denver Center
Wed 07:23:16 PM 39.4056 -104.1453 274° West 283 326 14,300 -1,268 Descending Denver Center
Wed 07:24:17 PM 39.4086 -104.2256 273° West 273 314 13,300 -1,016 Descending Denver Center
Wed 07:25:20 PM 39.4358 -104.3261 289° West 244 281 12,200 -1,104 Descending Denver Center
Wed 07:26:22 PM 39.4594 -104.4147 289° West 257 296 11,000 -629 Descending Denver Center
Wed 07:27:24 PM 39.5050 -104.4928 307° West 267 307 10,900 -435 Descending Denver Center
Wed 07:28:26 PM 39.5697 -104.5328 335° Northwest 261 300 10,100 -774 Descending Denver Center
Wed 07:29:28 PM 39.6411 -104.5758 335° Northwest 264 304 9,300 -1,016 Descending Denver Center
Wed 07:30:30 PM 39.7031 -104.6142 335° Northwest 249 287 8,000 -1,161 Descending Denver Center
Wed 07:31:32 PM 39.7556 -104.6442 336° Northwest 192 221 6,900 -919 Descending Denver Center
Wed 07:32:34 PM 39.7967 -104.6433 North 152 175 6,100 -726 Descending Denver Center
Wed 07:33:36 PM 39.8331 -104.6417 North 145 167 5,400 -677 Descending Denver Center
Wed 07:35:00 PM 39.8500 -104.6667 North  Level FlightAware Approximate
Wed 07:42:00 PM 39.8617 -104.6732 North  Level Estimated
Wed 07:43:00 PM 39.8617 -104.6732 North  Level Estimated

Login

Don't have an account? Register now (free) for customized features, flight alerts, and more!